Time;durP1;ratioP1;P1;durP2;ratioP2;P2;SDS_P1;SDS_P2;PMS_P1;PMS_P2;Temp;Humidity;BMP_temperature;BMP_pressure;BME280_temperature;BME280_humidity;BME280_pressure;Samples;Min_cycle;Max_cycle;Signal;HPM_P1;HPM_P2
2022/08/08 00:02:31;;;;;;;3.10;1.90;;;24.70;43.20;;;;;;4998393;28;87569;-77
2022/08/08 00:05:05;;;;;;;1.60;1.50;;;24.70;43.20;;;;;;5022283;27;87152;-77
2022/08/08 00:07:55;;;;;;;2.25;1.40;;;24.70;43.20;;;;;;5040746;27;88029;-77
2022/08/08 00:10:47;;;;;;;1.70;1.60;;;24.70;43.40;;;;;;5037298;27;88201;-76
2022/08/08 00:13:18;;;;;;;3.50;1.75;;;24.70;43.40;;;;;;5036854;27;88348;-77
2022/08/08 00:15:49;;;;;;;1.80;1.70;;;24.70;43.60;;;;;;5040018;27;87691;-77
2022/08/08 00:18:35;;;;;;;1.92;1.80;;;24.70;43.50;;;;;;5037129;27;88086;-77
2022/08/08 00:21:03;;;;;;;2.40;1.70;;;24.70;43.60;;;;;;5038253;27;87315;-77
2022/08/08 00:23:46;;;;;;;1.77;1.67;;;24.70;43.40;;;;;;5044050;27;87134;-76
2022/08/08 00:26:24;;;;;;;2.95;2.17;;;24.70;43.30;;;;;;5026180;27;87748;-77
2022/08/08 00:28:53;;;;;;;2.97;1.60;;;24.70;43.20;;;;;;5010387;28;87910;-77
2022/08/08 00:31:23;;;;;;;2.80;2.60;;;24.70;43.10;;;;;;5010666;28;87395;-77
2022/08/08 00:37:13;;;;;;;3.20;2.90;;;24.70;43.80;;;;;;5011372;28;86914;-77
2022/08/08 00:40:01;;;;;;;3.50;3.20;;;24.70;43.90;;;;;;5010630;28;89177;-77
2022/08/08 00:42:29;;;;;;;4.55;3.13;;;24.70;44.00;;;;;;5010578;28;88887;-77
2022/08/08 00:45:10;;;;;;;4.63;3.55;;;24.70;44.20;;;;;;5011960;28;86935;-78
2022/08/08 00:48:08;;;;;;;4.20;3.80;;;24.70;44.40;;;;;;5011767;28;88106;-78
2022/08/08 00:51:09;;;;;;;4.10;3.70;;;24.70;44.30;;;;;;5011836;28;88111;-77
2022/08/08 00:53:50;;;;;;;4.38;3.97;;;24.70;44.30;;;;;;5011849;28;87065;-78
2022/08/08 00:56:37;;;;;;;3.92;3.42;;;24.70;44.40;;;;;;5012094;28;87426;-78
2022/08/08 00:59:09;;;;;;;4.07;3.67;;;24.70;44.60;;;;;;5011639;28;87288;-78
2022/08/08 01:01:54;;;;;;;4.40;4.00;;;24.60;44.40;;;;;;5011781;28;87470;-78
2022/08/08 01:05:10;;;;;;;4.93;4.18;;;24.60;44.40;;;;;;5011091;28;87582;-77
2022/08/08 01:07:54;;;;;;;4.38;3.97;;;24.60;44.50;;;;;;4990865;28;88334;-78
2022/08/08 01:10:42;;;;;;;4.45;3.95;;;24.60;44.40;;;;;;5007870;28;87214;-77
2022/08/08 01:13:33;;;;;;;4.87;4.47;;;24.60;44.50;;;;;;5008523;28;87986;-78
2022/08/08 01:16:32;;;;;;;4.68;4.28;;;24.60;44.40;;;;;;5007266;28;88162;-78
2022/08/08 01:19:23;;;;;;;5.05;4.55;;;24.60;44.60;;;;;;5009301;28;87900;-78
2022/08/08 01:22:20;;;;;;;4.82;4.38;;;24.60;44.40;;;;;;5008342;28;87042;-78
2022/08/08 01:24:58;;;;;;;5.03;4.32;;;24.60;44.60;;;;;;5008543;28;88683;-78
2022/08/08 01:27:52;;;;;;;6.18;4.35;;;24.60;44.40;;;;;;5007980;28;86599;-78
2022/08/08 01:30:42;;;;;;;4.70;4.30;;;24.60;44.50;;;;;;5004965;28;87564;-78
2022/08/08 01:33:34;;;;;;;4.63;4.22;;;24.60;44.50;;;;;;5008244;28;86979;-78
2022/08/08 01:36:20;;;;;;;5.30;4.80;;;24.60;44.70;;;;;;5007840;28;89520;-78
2022/08/08 01:39:05;;;;;;;5.63;5.07;;;24.60;44.70;;;;;;5008246;28;88964;-78
2022/08/08 01:41:49;;;;;;;5.05;4.55;;;24.60;44.60;;;;;;5007790;28;87536;-78
2022/08/08 01:44:39;;;;;;;4.70;4.30;;;24.50;44.60;;;;;;5010967;28;87908;-78
2022/08/08 01:47:28;;;;;;;5.60;5.10;;;24.50;44.60;;;;;;5010610;28;87521;-78
2022/08/08 01:50:21;;;;;;;4.93;4.53;;;24.50;44.60;;;;;;5010382;28;88201;-78
2022/08/08 01:53:04;;;;;;;5.13;4.63;;;24.50;44.60;;;;;;5010986;28;86815;-78
2022/08/08 01:55:47;;;;;;;5.07;4.57;;;24.50;44.60;;;;;;5010942;28;87415;-78
2022/08/08 01:58:48;;;;;;;5.10;4.70;;;24.50;44.60;;;;;;5010596;28;88065;-78
2022/08/08 02:01:38;;;;;;;4.85;4.45;;;24.50;44.70;;;;;;5010423;28;88285;-78
2022/08/08 02:04:24;;;;;;;5.13;4.72;;;24.50;44.70;;;;;;5010078;28;87918;-78
2022/08/08 02:07:02;;;;;;;5.22;4.72;;;24.50;44.70;;;;;;5010382;28;87099;-78
2022/08/08 02:09:58;;;;;;;5.35;4.90;;;24.50;45.00;;;;;;5010025;28;88506;-78
2022/08/08 02:12:32;;;;;;;4.68;4.28;;;24.50;45.00;;;;;;5010116;28;87746;-78
2022/08/08 02:14:57;;;;;;;4.97;4.57;;;24.50;44.80;;;;;;5010599;28;87519;-78
2022/08/08 02:17:35;;;;;;;5.50;5.00;;;24.50;44.70;;;;;;5010285;28;87326;-78
2022/08/08 02:20:20;;;;;;;5.05;4.63;;;24.50;44.90;;;;;;5009458;28;87618;-78
2022/08/08 02:23:21;;;;;;;4.45;3.92;;;24.50;45.50;;;;;;5010214;28;86757;-78
2022/08/08 02:26:08;;;;;;;4.90;4.50;;;24.50;44.90;;;;;;5009596;28;86977;-78
2022/08/08 02:28:37;;;;;;;4.68;4.28;;;24.50;45.10;;;;;;5009557;28;87219;-78
2022/08/08 02:31:21;;;;;;;5.30;4.80;;;24.50;45.00;;;;;;5009487;28;89247;-78
2022/08/08 02:33:55;;;;;;;4.68;4.28;;;24.50;45.00;;;;;;5010017;28;88330;-78
2022/08/08 02:36:50;;;;;;;4.70;4.30;;;24.50;44.90;;;;;;5010516;28;86884;-78
2022/08/08 02:39:44;;;;;;;4.47;4.07;;;24.50;45.10;;;;;;5009295;28;87437;-78
2022/08/08 02:42:28;;;;;;;4.75;4.35;;;24.40;44.90;;;;;;5009825;28;88565;-78
2022/08/08 02:45:25;;;;;;;4.65;4.25;;;24.40;44.80;;;;;;5009884;28;88727;-78
2022/08/08 02:48:25;;;;;;;5.20;4.70;;;24.50;44.80;;;;;;5010027;28;87719;-77
2022/08/08 02:51:47;;;;;;;4.63;4.22;;;24.40;44.90;;;;;;5010055;28;87047;-79
2022/08/08 02:54:30;;;;;;;4.70;4.28;;;24.40;45.10;;;;;;4990107;28;88216;-78
2022/08/08 02:57:16;;;;;;;4.18;3.83;;;24.40;45.00;;;;;;5003392;28;89161;-78
2022/08/08 03:00:17;;;;;;;5.22;4.75;;;24.50;45.20;;;;;;4990280;28;88132;-78
2022/08/08 03:03:01;;;;;;;4.60;4.20;;;24.40;45.00;;;;;;4928335;28;87201;-78
2022/08/08 03:05:44;;;;;;;4.75;4.35;;;24.40;45.10;;;;;;4928389;28;87379;-78
2022/08/08 03:08:16;;;;;;;4.53;4.13;;;24.40;45.20;;;;;;4928187;28;89715;-78
2022/08/08 03:11:08;;;;;;;4.53;3.97;;;24.40;45.20;;;;;;4928855;28;87732;-78
2022/08/08 03:13:42;;;;;;;4.40;4.00;;;24.40;45.20;;;;;;4928437;28;87106;-77
2022/08/08 03:16:29;;;;;;;4.38;3.97;;;24.40;45.00;;;;;;4927959;28;88128;-77
2022/08/08 03:19:03;;;;;;;4.55;3.95;;;24.40;45.10;;;;;;4928733;28;87903;-78
2022/08/08 03:21:28;;;;;;;4.30;3.90;;;24.40;45.10;;;;;;4924949;28;87190;-78
2022/08/08 03:23:54;;;;;;;4.15;3.75;;;24.40;45.00;;;;;;4928237;28;87174;-78
2022/08/08 03:26:34;;;;;;;4.05;3.65;;;24.40;45.10;;;;;;4927009;28;88730;-78
2022/08/08 03:29:06;;;;;;;4.10;3.70;;;24.40;45.20;;;;;;4928351;28;89178;-78
2022/08/08 03:34:16;;;;;;;3.72;3.42;;;24.40;45.00;;;;;;4927892;28;87123;-78
2022/08/08 03:36:43;;;;;;;4.85;3.72;;;24.40;45.10;;;;;;4927945;28;88554;-78
2022/08/08 03:39:13;;;;;;;4.30;3.90;;;24.40;45.20;;;;;;4950221;28;87795;-77
2022/08/08 03:41:39;;;;;;;4.10;3.70;;;24.40;45.20;;;;;;5009273;28;87791;-78
2022/08/08 03:44:05;;;;;;;3.72;3.42;;;24.40;45.20;;;;;;5009265;28;86834;-78
2022/08/08 03:46:41;;;;;;;3.50;3.20;;;24.30;45.30;;;;;;5008312;28;88426;-78
2022/08/08 03:49:22;;;;;;;3.70;3.40;;;24.30;45.20;;;;;;5024216;28;88917;-78
2022/08/08 03:51:52;;;;;;;3.60;3.30;;;24.30;45.30;;;;;;5009310;28;87990;-78
2022/08/08 03:54:18;;;;;;;3.70;3.40;;;24.30;45.20;;;;;;5008471;28;87670;-78
2022/08/08 03:56:44;;;;;;;4.20;3.80;;;24.30;45.20;;;;;;5009098;28;87183;-78
2022/08/08 03:59:10;;;;;;;3.65;3.35;;;24.40;45.20;;;;;;5008643;28;89673;-78
2022/08/08 04:01:37;;;;;;;3.55;3.28;;;24.30;45.20;;;;;;5009759;28;87874;-78
2022/08/08 04:04:03;;;;;;;3.75;3.38;;;24.30;45.30;;;;;;5010335;28;87361;-78
2022/08/08 04:06:29;;;;;;;3.70;3.38;;;24.30;45.20;;;;;;5010827;28;88244;-77
2022/08/08 04:08:54;;;;;;;3.55;3.25;;;24.30;45.20;;;;;;5012259;28;87230;-78
2022/08/08 04:11:20;;;;;;;3.40;3.10;;;24.30;45.30;;;;;;5011780;28;87320;-78
2022/08/08 04:13:46;;;;;;;3.40;3.10;;;24.30;45.50;;;;;;5012251;28;87345;-78
2022/08/08 04:16:11;;;;;;;3.45;3.15;;;24.30;45.40;;;;;;5010495;28;91163;-77
2022/08/08 04:18:37;;;;;;;3.10;2.80;;;24.30;45.40;;;;;;5012271;28;88155;-78
2022/08/08 04:21:03;;;;;;;3.65;3.35;;;24.30;45.40;;;;;;5010873;28;87356;-78
2022/08/08 04:23:29;;;;;;;2.97;2.78;;;24.30;45.40;;;;;;5011777;28;89449;-78
2022/08/08 04:25:54;;;;;;;3.30;3.00;;;24.30;45.40;;;;;;5012685;28;88495;-78
2022/08/08 04:28:20;;;;;;;3.40;3.10;;;24.30;45.40;;;;;;5010981;28;87734;-78
2022/08/08 04:30:47;;;;;;;3.92;3.63;;;24.30;45.30;;;;;;5012367;28;86994;-78
2022/08/08 04:33:12;;;;;;;4.72;2.95;;;24.30;45.20;;;;;;5013021;28;87993;-78
2022/08/08 04:35:39;;;;;;;3.20;2.90;;;24.30;45.40;;;;;;5011483;28;88111;-78
2022/08/08 04:38:05;;;;;;;3.50;2.92;;;24.30;45.30;;;;;;5011473;28;87417;-78
2022/08/08 04:40:30;;;;;;;3.35;3.05;;;24.30;45.60;;;;;;5011810;28;88710;-78
2022/08/08 04:42:56;;;;;;;3.08;2.78;;;24.30;45.60;;;;;;5011354;28;87458;-78
2022/08/08 04:45:23;;;;;;;3.10;2.70;;;24.30;45.50;;;;;;5012103;28;88603;-78
2022/08/08 04:47:49;;;;;;;2.90;2.70;;;24.30;45.50;;;;;;5011347;28;87000;-77
2022/08/08 04:50:14;;;;;;;2.95;2.72;;;24.30;45.40;;;;;;5011892;28;87386;-78
2022/08/08 04:52:40;;;;;;;2.60;2.40;;;24.30;45.60;;;;;;5011687;28;87669;-78
2022/08/08 04:55:06;;;;;;;3.47;3.17;;;24.30;45.60;;;;;;5010703;28;89634;-78
2022/08/08 04:57:31;;;;;;;3.33;3.03;;;24.30;45.60;;;;;;5012615;28;86894;-78
2022/08/08 04:59:57;;;;;;;3.13;2.92;;;24.30;45.70;;;;;;5011510;28;86980;-78
2022/08/08 05:02:22;;;;;;;3.58;3.28;;;24.30;45.60;;;;;;5011433;28;88119;-78
2022/08/08 05:04:48;;;;;;;3.05;2.75;;;24.30;45.60;;;;;;5010965;28;88963;-78
2022/08/08 05:07:13;;;;;;;3.10;2.90;;;24.30;45.50;;;;;;5011693;28;89050;-78
2022/08/08 05:09:39;;;;;;;3.30;3.00;;;24.30;45.60;;;;;;5011200;28;87518;-78
2022/08/08 05:12:05;;;;;;;3.45;3.15;;;24.30;45.70;;;;;;5011618;28;87369;-78
2022/08/08 05:14:31;;;;;;;3.13;2.83;;;24.30;45.70;;;;;;5011845;28;87726;-78
2022/08/08 05:16:56;;;;;;;2.63;2.42;;;24.30;45.70;;;;;;5010261;28;87227;-78
2022/08/08 05:19:22;;;;;;;3.40;3.03;;;24.30;45.70;;;;;;5011095;28;86841;-77
2022/08/08 05:21:48;;;;;;;2.70;2.50;;;24.30;45.90;;;;;;5010792;28;86391;-78
2022/08/08 05:24:15;;;;;;;2.70;2.50;;;24.40;46.50;;;;;;5010883;28;88290;-77
2022/08/08 05:26:45;;;;;;;2.95;2.75;;;24.40;45.90;;;;;;5009914;28;89351;-78
2022/08/08 05:29:11;;;;;;;;;;;24.40;45.90;;;;;;5011599;28;88576;-78
2022/08/08 05:31:37;;;;;;;3.00;2.80;;;24.40;45.70;;;;;;5012063;28;87390;-78
2022/08/08 05:34:05;;;;;;;2.60;2.40;;;24.40;46.00;;;;;;5010314;28;87519;-78
2022/08/08 05:36:34;;;;;;;2.90;2.70;;;24.50;45.80;;;;;;5010482;28;87875;-78
2022/08/08 05:39:04;;;;;;;2.63;2.42;;;24.50;45.60;;;;;;5010774;28;86962;-78
2022/08/08 05:41:34;;;;;;;2.58;2.38;;;24.50;45.60;;;;;;5010469;28;88698;-78
2022/08/08 05:44:10;;;;;;;2.65;2.45;;;24.50;45.60;;;;;;5010375;28;87659;-78
2022/08/08 05:46:37;;;;;;;2.67;2.47;;;24.60;45.70;;;;;;5010778;28;86303;-78
2022/08/08 05:49:03;;;;;;;2.67;2.47;;;24.60;45.70;;;;;;5010528;28;88209;-78
2022/08/08 05:51:29;;;;;;;2.75;2.55;;;24.60;45.50;;;;;;5010222;28;87162;-78
2022/08/08 05:53:55;;;;;;;2.60;2.40;;;24.60;45.50;;;;;;5010720;28;89156;-78
2022/08/08 05:56:22;;;;;;;3.03;2.47;;;24.70;45.60;;;;;;5010653;28;88820;-77
2022/08/08 05:58:54;;;;;;;2.97;2.78;;;24.70;45.70;;;;;;5011243;28;87401;-78
2022/08/08 06:01:21;;;;;;;2.60;2.40;;;24.70;45.50;;;;;;5010921;28;88045;-78
2022/08/08 06:03:49;;;;;;;2.33;2.13;;;24.70;45.70;;;;;;5010889;28;88422;-78
2022/08/08 06:06:15;;;;;;;2.88;2.67;;;24.70;46.20;;;;;;5008487;28;89993;-78
2022/08/08 06:08:50;;;;;;;2.58;2.38;;;24.70;45.60;;;;;;5010703;28;87532;-78
2022/08/08 06:11:16;;;;;;;2.53;2.33;;;24.80;45.70;;;;;;5008421;28;88767;-78
2022/08/08 06:13:44;;;;;;;2.47;2.28;;;24.80;45.70;;;;;;5010410;28;89182;-78
2022/08/08 06:16:12;;;;;;;3.30;2.50;;;24.80;45.70;;;;;;5010316;28;87776;-78
2022/08/08 06:18:39;;;;;;;2.63;2.42;;;24.80;45.50;;;;;;5009788;28;88583;-78
2022/08/08 06:21:07;;;;;;;2.92;2.65;;;24.80;45.70;;;;;;5009641;28;87559;-78
2022/08/08 06:23:32;;;;;;;2.33;2.05;;;24.90;45.80;;;;;;5011101;28;89907;-78
2022/08/08 06:26:04;;;;;;;2.58;2.28;;;24.90;45.80;;;;;;5009311;28;88023;-78
2022/08/08 06:28:36;;;;;;;1.92;1.80;;;24.90;45.70;;;;;;5006778;28;87323;-78
2022/08/08 06:31:04;;;;;;;2.47;2.28;;;25.00;45.70;;;;;;5009689;28;87157;-78
2022/08/08 06:33:41;;;;;;;2.22;2.08;;;25.00;45.80;;;;;;5009070;28;88160;-78
2022/08/08 06:36:10;;;;;;;2.25;2.05;;;25.00;45.90;;;;;;5009944;28;88097;-78
2022/08/08 06:38:39;;;;;;;6.22;3.03;;;25.00;45.80;;;;;;5009847;28;86842;-77
2022/08/08 06:41:11;;;;;;;;;;;25.00;46.50;;;;;;5011216;28;87188;-78
2022/08/08 06:43:42;;;;;;;9.38;4.13;;;25.00;46.10;;;;;;5010885;28;89276;-78
2022/08/08 06:46:08;;;;;;;6.93;5.28;;;24.90;46.40;;;;;;5023724;28;88435;-78
2022/08/08 06:48:35;;;;;;;11.13;5.25;;;24.80;46.90;;;;;;5009361;28;87468;-77
2022/08/08 06:51:02;;;;;;;11.85;5.50;;;24.70;47.10;;;;;;5009754;28;87532;-77
2022/08/08 06:53:29;;;;;;;9.20;5.07;;;24.70;47.30;;;;;;5009766;28;88737;-77
2022/08/08 06:55:54;;;;;;;7.72;5.10;;;24.60;47.90;;;;;;5009798;28;87887;-77
2022/08/08 06:58:20;;;;;;;11.40;5.05;;;24.60;47.70;;;;;;5009041;28;86870;-77
2022/08/08 07:00:50;;;;;;;8.88;5.05;;;24.70;47.70;;;;;;5010690;28;87130;-77
2022/08/08 07:03:46;;;;;;;6.22;4.65;;;24.70;47.90;;;;;;5009245;28;87503;-77
2022/08/08 07:06:17;;;;;;;12.32;5.03;;;24.60;47.90;;;;;;5009578;28;87982;-77
2022/08/08 07:08:46;;;;;;;9.88;4.80;;;24.60;47.70;;;;;;5009416;28;88614;-77
2022/08/08 07:11:16;;;;;;;7.25;4.03;;;24.60;47.80;;;;;;5009403;28;87170;-77
2022/08/08 07:13:44;;;;;;;10.85;4.28;;;24.50;47.80;;;;;;5008959;28;87610;-77
2022/08/08 07:16:21;;;;;;;9.75;4.30;;;24.50;47.80;;;;;;5009336;28;88572;-77
2022/08/08 07:19:05;;;;;;;7.13;4.68;;;24.50;47.60;;;;;;5010268;28;87680;-77
2022/08/08 07:21:53;;;;;;;8.25;4.20;;;24.50;47.50;;;;;;5009611;28;87530;-77
2022/08/08 07:24:28;;;;;;;6.85;4.32;;;24.40;47.60;;;;;;5008427;28;87548;-77
2022/08/08 07:26:54;;;;;;;8.88;4.40;;;24.40;47.60;;;;;;5009848;28;87456;-77
2022/08/08 07:29:21;;;;;;;6.30;3.95;;;24.50;47.60;;;;;;5009541;28;87564;-76
2022/08/08 07:31:47;;;;;;;8.20;3.70;;;24.50;47.60;;;;;;5008491;28;87402;-77
2022/08/08 07:34:16;;;;;;;11.27;4.35;;;24.50;47.40;;;;;;5008649;28;90226;-77
2022/08/08 07:36:42;;;;;;;15.48;4.75;;;24.60;47.40;;;;;;5009021;28;89132;-77
2022/08/08 07:39:08;;;;;;;10.73;4.47;;;24.60;47.20;;;;;;5006956;28;87504;-76
2022/08/08 07:41:37;;;;;;;13.50;4.10;;;24.50;47.50;;;;;;5011103;28;87273;-77
2022/08/08 07:44:05;;;;;;;72.22;14.20;;;24.50;47.30;;;;;;5012284;28;87699;-78
2022/08/08 07:46:30;;;;;;;32.55;8.10;;;24.60;47.50;;;;;;5013130;28;88666;-78
2022/08/08 07:48:56;;;;;;;39.35;8.35;;;24.60;47.40;;;;;;5012116;28;87249;-78
2022/08/08 07:51:23;;;;;;;35.67;8.60;;;24.60;47.20;;;;;;5013037;28;87112;-78
2022/08/08 07:54:24;;;;;;;36.42;7.63;;;24.60;47.30;;;;;;5012284;28;88495;-78
2022/08/08 07:56:58;;;;;;;32.28;8.40;;;24.50;47.30;;;;;;5011086;28;91354;-78
2022/08/08 07:59:29;;;;;;;24.88;7.63;;;24.50;47.30;;;;;;5011364;28;88076;-79
2022/08/08 08:01:57;;;;;;;25.15;6.72;;;24.60;47.30;;;;;;5010948;28;89846;-78
2022/08/08 08:04:33;;;;;;;26.25;6.53;;;24.60;47.30;;;;;;5012348;28;89048;-78
2022/08/08 08:06:59;;;;;;;26.65;7.72;;;24.60;47.00;;;;;;5012616;28;90277;-77
2022/08/08 08:09:30;;;;;;;23.98;6.65;;;24.60;47.10;;;;;;5011430;28;87192;-79
2022/08/08 08:11:57;;;;;;;20.42;6.28;;;24.70;47.10;;;;;;5012429;28;88064;-78
2022/08/08 08:14:35;;;;;;;23.02;6.35;;;24.60;47.30;;;;;;5011513;28;89437;-78
2022/08/08 08:17:01;;;;;;;28.30;6.97;;;24.70;47.20;;;;;;5012349;28;88463;-78
2022/08/08 08:19:31;;;;;;;14.63;6.10;;;24.70;47.10;;;;;;5012802;28;87486;-78
2022/08/08 08:21:56;;;;;;;19.52;6.22;;;24.70;47.00;;;;;;5012103;28;87657;-78
2022/08/08 08:24:22;;;;;;;17.67;6.20;;;24.70;46.90;;;;;;5010555;28;89499;-78
2022/08/08 08:26:48;;;;;;;20.17;6.63;;;24.70;46.90;;;;;;5011136;28;90174;-78
2022/08/08 08:29:14;;;;;;;18.67;5.72;;;24.70;46.90;;;;;;5011312;28;87709;-77
2022/08/08 08:31:40;;;;;;;15.40;5.55;;;24.70;46.90;;;;;;5011234;28;87345;-78
2022/08/08 08:34:06;;;;;;;17.48;5.70;;;24.70;46.70;;;;;;5011700;28;88524;-78
2022/08/08 08:36:31;;;;;;;12.65;5.25;;;24.70;46.90;;;;;;5010728;28;89730;-78
2022/08/08 08:38:58;;;;;;;12.68;5.05;;;24.70;46.70;;;;;;5010489;28;87601;-78
2022/08/08 08:41:25;;;;;;;17.42;5.03;;;24.70;46.90;;;;;;5011377;28;88333;-78
2022/08/08 08:43:51;;;;;;;9.10;4.47;;;24.70;46.80;;;;;;5011917;28;89321;-78
2022/08/08 08:46:18;;;;;;;13.65;5.30;;;24.60;46.90;;;;;;5009702;28;87186;-77
2022/08/08 08:48:44;;;;;;;13.13;5.38;;;24.70;46.80;;;;;;5011396;28;87855;-78
2022/08/08 08:51:12;;;;;;;15.00;5.32;;;24.60;46.80;;;;;;5010747;28;87643;-78
2022/08/08 08:53:43;;;;;;;12.23;4.67;;;24.70;46.80;;;;;;5010909;28;89906;-78
2022/08/08 08:56:12;;;;;;;13.07;4.30;;;24.70;46.80;;;;;;5011056;28;87854;-78
2022/08/08 08:58:43;;;;;;;11.32;4.45;;;24.70;46.80;;;;;;5011050;28;87352;-78
2022/08/08 09:01:11;;;;;;;11.65;5.03;;;24.70;46.90;;;;;;5011713;28;86842;-78
2022/08/08 09:03:42;;;;;;;10.90;3.88;;;24.70;46.90;;;;;;5011204;28;88054;-78
2022/08/08 09:06:14;;;;;;;9.48;4.63;;;24.70;46.70;;;;;;5011037;28;87008;-78
2022/08/08 09:08:45;;;;;;;10.73;4.20;;;24.70;46.80;;;;;;5011061;28;87139;-78
2022/08/08 09:11:13;;;;;;;9.27;4.47;;;24.70;46.40;;;;;;5010825;28;88704;-78
2022/08/08 09:13:42;;;;;;;9.73;4.15;;;24.70;46.40;;;;;;5010038;28;89412;-78
2022/08/08 09:16:08;;;;;;;9.15;4.25;;;24.70;46.50;;;;;;5008638;28;88820;-79
2022/08/08 09:18:34;;;;;;;9.55;4.30;;;24.70;46.50;;;;;;5008860;28;87716;-78
2022/08/08 09:21:01;;;;;;;6.95;3.67;;;24.70;46.80;;;;;;5011283;28;86976;-78
2022/08/08 09:23:28;;;;;;;6.25;3.15;;;24.80;46.80;;;;;;5011415;28;88989;-78
2022/08/08 09:26:08;;;;;;;9.70;3.92;;;24.80;46.40;;;;;;5011116;28;88341;-81
2022/08/08 09:28:38;;;;;;;7.70;3.50;;;24.80;46.30;;;;;;5009021;28;87688;-81
2022/08/08 09:31:10;;;;;;;6.47;3.58;;;24.80;46.20;;;;;;5011847;28;87634;-80
2022/08/08 09:33:36;;;;;;;6.70;3.00;;;24.90;45.80;;;;;;5010899;28;88980;-80
2022/08/08 09:36:02;;;;;;;13.80;3.45;;;24.90;45.80;;;;;;5010888;28;87765;-80
2022/08/08 09:38:51;;;;;;;7.10;3.42;;;24.90;46.00;;;;;;5010895;28;87950;-80
2022/08/08 09:41:22;;;;;;;9.60;3.35;;;24.90;46.30;;;;;;5011710;28;87456;-79
2022/08/08 09:43:49;;;;;;;6.97;3.20;;;24.90;46.20;;;;;;5011441;28;87693;-80
2022/08/08 09:46:16;;;;;;;8.65;3.20;;;24.90;45.80;;;;;;5010768;28;89523;-80
2022/08/08 09:48:44;;;;;;;6.18;2.80;;;24.90;45.90;;;;;;5011857;28;87414;-80
2022/08/08 09:51:14;;;;;;;7.57;3.08;;;24.90;45.20;;;;;;5010329;28;87582;-80
2022/08/08 09:53:54;;;;;;;8.88;3.40;;;24.90;45.00;;;;;;5010352;28;89877;-80
2022/08/08 09:56:20;;;;;;;8.68;3.20;;;24.90;45.40;;;;;;5011690;28;88764;-80
2022/08/08 09:59:02;;;;;;;4.85;2.38;;;24.90;45.70;;;;;;5010412;28;87379;-80
2022/08/08 10:01:29;;;;;;;11.10;3.10;;;24.80;45.90;;;;;;5009632;28;88518;-80
2022/08/08 10:03:57;;;;;;;5.32;3.20;;;24.90;46.00;;;;;;5009564;28;90304;-80
2022/08/08 10:06:23;;;;;;;5.90;3.10;;;24.90;45.70;;;;;;5009662;28;89021;-80
2022/08/08 10:08:51;;;;;;;9.10;3.15;;;25.00;45.30;;;;;;5010848;28;86834;-79
2022/08/08 10:11:22;;;;;;;7.00;2.95;;;25.00;44.70;;;;;;5009937;28;88871;-80
2022/08/08 10:14:01;;;;;;;4.97;2.70;;;25.10;44.50;;;;;;5010028;28;90304;-80
2022/08/08 10:16:41;;;;;;;10.63;2.70;;;25.00;44.50;;;;;;5010256;28;87782;-79
2022/08/08 10:19:10;;;;;;;10.13;2.95;;;25.00;44.60;;;;;;5009065;28;87702;-80
2022/08/08 10:21:37;;;;;;;4.53;2.40;;;25.00;44.80;;;;;;5026680;28;89376;-79
2022/08/08 10:24:10;;;;;;;5.53;2.83;;;25.00;44.80;;;;;;5027519;27;88455;-80
2022/08/08 10:26:43;;;;;;;6.85;2.65;;;24.90;44.80;;;;;;5032807;28;88556;-86
2022/08/08 10:29:11;;;;;;;6.32;2.60;;;24.90;44.90;;;;;;5033347;28;89285;-85
2022/08/08 10:34:24;;;;;;;5.72;2.92;;;24.90;45.40;;;;;;5033662;27;87376;-87
2022/08/08 10:36:51;;;;;;;6.15;2.63;;;25.00;45.00;;;;;;5033618;28;88249;-86
2022/08/08 10:39:17;;;;;;;6.63;2.92;;;25.00;44.70;;;;;;5034111;28;87425;-86
2022/08/08 10:41:46;;;;;;;9.18;3.17;;;25.10;44.70;;;;;;5033414;28;89582;-86
2022/08/08 10:44:17;;;;;;;4.28;2.75;;;25.00;44.60;;;;;;5032543;28;90387;-84
2022/08/08 10:46:42;;;;;;;5.32;2.45;;;25.00;44.90;;;;;;5032396;28;89105;-85
2022/08/08 10:49:17;;;;;;;6.95;3.00;;;25.00;44.70;;;;;;5032193;28;86959;-85
2022/08/08 10:51:42;;;;;;;12.90;3.40;;;25.00;44.80;;;;;;4979226;27;88231;-84
2022/08/08 10:54:08;;;;;;;7.80;3.25;;;25.00;44.90;;;;;;5015854;28;88437;-86
2022/08/08 10:56:34;;;;;;;4.53;2.45;;;24.90;44.90;;;;;;5016087;28;88948;-85
2022/08/08 10:59:02;;;;;;;5.70;2.67;;;24.90;45.20;;;;;;5014656;28;86870;-84
2022/08/08 11:01:28;;;;;;;5.63;2.70;;;24.80;45.40;;;;;;5015415;28;87489;-85
2022/08/08 11:03:59;;;;;;;5.88;3.15;;;24.90;45.10;;;;;;5014845;28;87302;-84
2022/08/08 11:06:33;;;;;;;5.18;3.10;;;24.90;45.50;;;;;;5013438;28;90703;-84
2022/08/08 11:09:07;;;;;;;7.40;2.72;;;24.90;45.90;;;;;;5015237;28;87358;-84
2022/08/08 11:11:41;;;;;;;8.88;2.88;;;24.90;46.10;;;;;;5014659;28;87520;-85
2022/08/08 11:14:09;;;;;;;6.93;2.83;;;24.90;46.30;;;;;;5013335;28;88970;-85
2022/08/08 11:16:35;;;;;;;6.53;2.75;;;24.90;46.50;;;;;;5016548;28;88540;-86
2022/08/08 11:19:03;;;;;;;7.25;2.92;;;24.90;46.90;;;;;;5017550;28;87955;-84
2022/08/08 11:21:33;;;;;;;6.88;2.70;;;24.90;47.20;;;;;;5017705;28;87683;-85
2022/08/08 11:24:03;;;;;;;6.90;3.00;;;24.90;47.80;;;;;;5016591;28;88673;-85
2022/08/08 11:26:30;;;;;;;6.38;3.25;;;24.90;47.70;;;;;;5016859;28;88404;-85
2022/08/08 11:29:02;;;;;;;10.02;2.60;;;24.80;47.50;;;;;;5016477;28;87572;-85
2022/08/08 11:31:34;;;;;;;7.05;2.83;;;24.90;47.30;;;;;;5015518;28;87306;-85
2022/08/08 11:34:03;;;;;;;6.80;2.78;;;24.90;47.30;;;;;;5015734;28;88752;-83
2022/08/08 11:36:35;;;;;;;5.38;2.50;;;24.90;47.10;;;;;;5015329;28;89771;-85
2022/08/08 11:39:02;;;;;;;9.10;2.60;;;24.90;46.80;;;;;;5015673;28;87031;-86
2022/08/08 11:41:28;;;;;;;5.65;2.65;;;24.90;46.70;;;;;;5016262;28;86892;-83
2022/08/08 11:43:55;;;;;;;3.90;2.40;;;24.90;46.80;;;;;;5015461;28;89326;-85
2022/08/08 11:46:23;;;;;;;8.82;2.85;;;24.80;46.90;;;;;;5015557;28;89392;-85
2022/08/08 11:48:50;;;;;;;5.00;2.43;;;24.80;46.80;;;;;;5015682;28;87088;-84
2022/08/08 11:51:18;;;;;;;4.53;2.83;;;24.80;47.00;;;;;;5015113;28;89428;-85
2022/08/08 11:53:46;;;;;;;4.63;2.45;;;24.80;47.10;;;;;;4961084;27;88022;-83
2022/08/08 11:56:22;;;;;;;4.05;2.38;;;24.80;47.00;;;;;;5017862;28;88340;-85
2022/08/08 11:58:49;;;;;;;4.43;2.50;;;24.80;47.10;;;;;;5014850;28;87156;-84
2022/08/08 12:01:15;;;;;;;7.47;2.72;;;24.80;47.30;;;;;;5014922;28;86554;-84
2022/08/08 12:03:48;;;;;;;5.22;2.20;;;24.80;47.30;;;;;;5015734;28;88926;-84
2022/08/08 12:06:16;;;;;;;3.38;2.78;;;24.80;47.40;;;;;;5011361;28;87616;-84
2022/08/08 12:08:43;;;;;;;2.50;2.30;;;24.80;47.30;;;;;;5010513;28;88490;-84
2022/08/08 12:11:15;;;;;;;3.75;2.40;;;24.80;47.50;;;;;;4973745;28;1162047;-83
2022/08/08 12:13:41;;;;;;;4.55;2.50;;;24.80;47.70;;;;;;5046395;27;88016;-84
2022/08/08 12:16:09;;;;;;;3.85;2.40;;;24.70;47.80;;;;;;5015692;28;87243;-83
2022/08/08 12:18:50;;;;;;;4.45;2.60;;;24.70;47.90;;;;;;5016884;28;86958;-84
2022/08/08 12:21:26;;;;;;;3.20;2.03;;;24.70;47.80;;;;;;5016336;28;87684;-84
2022/08/08 12:24:12;;;;;;;5.78;2.58;;;24.70;47.80;;;;;;5016391;28;89754;-85
2022/08/08 12:26:51;;;;;;;4.95;2.70;;;24.70;47.80;;;;;;5015486;28;89739;-84
2022/08/08 12:29:21;;;;;;;3.55;2.40;;;24.80;47.40;;;;;;5015927;28;87185;-84
2022/08/08 12:32:00;;;;;;;3.92;2.97;;;24.80;47.40;;;;;;5016641;28;88694;-86
2022/08/08 12:35:09;;;;;;;5.25;2.20;;;24.80;47.40;;;;;;5015412;28;89633;-85
2022/08/08 12:37:34;;;;;;;4.80;2.22;;;24.80;47.60;;;;;;5014053;28;88683;-86
2022/08/08 12:40:12;;;;;;;2.35;2.15;;;24.80;47.40;;;;;;5012953;28;87361;-86
2022/08/08 12:42:47;;;;;;;4.25;2.55;;;24.80;47.40;;;;;;5014515;28;87491;-86
2022/08/08 12:45:13;;;;;;;4.63;2.38;;;24.80;47.20;;;;;;5014309;28;88711;-85
2022/08/08 12:47:39;;;;;;;3.20;2.38;;;24.90;47.30;;;;;;5013949;28;88275;-86
2022/08/08 12:50:06;;;;;;;5.45;2.25;;;24.90;47.20;;;;;;5014111;28;87047;-85
2022/08/08 12:52:38;;;;;;;5.30;2.25;;;24.90;47.40;;;;;;5014664;28;88773;-85
2022/08/08 12:55:09;;;;;;;4.03;2.47;;;24.90;47.60;;;;;;5014104;28;89018;-85
2022/08/08 12:57:35;;;;;;;3.30;2.25;;;24.90;47.60;;;;;;5014279;28;87278;-86
2022/08/08 13:00:02;;;;;;;3.13;2.17;;;24.90;47.80;;;;;;5013602;28;88561;-85
2022/08/08 13:02:32;;;;;;;6.88;2.50;;;24.90;48.00;;;;;;5014277;28;87165;-84
2022/08/08 13:04:59;;;;;;;;;;;24.90;48.10;;;;;;5013656;28;89097;-85
2022/08/08 13:07:35;;;;;;;10.55;2.60;;;24.90;48.00;;;;;;5014279;28;89164;-85
2022/08/08 13:10:03;;;;;;;4.22;2.63;;;24.90;48.10;;;;;;4994705;28;87995;-85
2022/08/08 13:12:35;;;;;;;6.73;2.83;;;25.00;48.40;;;;;;5012719;28;87198;-85
2022/08/08 13:15:06;;;;;;;8.52;2.72;;;25.00;48.70;;;;;;5013834;28;88188;-84
2022/08/08 13:17:33;;;;;;;5.75;2.40;;;25.00;48.90;;;;;;5017623;28;87980;-86
2022/08/08 13:19:59;;;;;;;6.70;2.60;;;25.00;48.80;;;;;;5017372;28;87096;-86
2022/08/08 13:22:25;;;;;;;5.75;2.80;;;24.90;48.90;;;;;;5016176;28;86926;-84
2022/08/08 13:24:52;;;;;;;5.22;2.30;;;25.00;49.70;;;;;;5015894;28;89792;-85